Time;durP1;ratioP1;P1;durP2;ratioP2;P2;SDS_P1;SDS_P2;PMS_P1;PMS_P2;Temp;Humidity;BMP_temperature;BMP_pressure;BME280_temperature;BME280_humidity;BME280_pressure;Samples;Min_cycle;Max_cycle;Signal;HPM_P1;HPM_P2
2022/01/20 00:01:50;;;;;;;25.10;7.70;;;3.60;99.90;;;;;;4292304;28;10000187;-74
2022/01/20 00:04:23;;;;;;;26.92;7.47;;;3.60;99.90;;;;;;4980783;28;20050;-74
2022/01/20 00:09:54;;;;;;;20.20;7.45;;;3.70;99.90;;;;;;4978062;28;20120;-75
2022/01/20 00:28:37;;;;;;;29.73;7.63;;;3.70;99.90;;;;;;4972627;28;21247;-74
2022/01/20 00:31:12;;;;;;;27.83;7.05;;;3.70;99.90;;;;;;4986315;28;20045;-75
2022/01/20 00:38:33;;;;;;;22.15;6.80;;;3.50;99.90;;;;;;4982009;28;20018;-74
2022/01/20 00:40:59;;;;;;;27.40;6.70;;;3.40;99.90;;;;;;4983034;28;20041;-74
2022/01/20 00:43:25;;;;;;;24.98;6.22;;;3.40;99.90;;;;;;4982499;28;20601;-74
2022/01/20 00:45:51;;;;;;;33.05;6.32;;;3.40;99.90;;;;;;4981683;28;20471;-74
2022/01/20 00:48:16;;;;;;;27.60;6.30;;;3.30;99.90;;;;;;4973593;28;20038;-74
2022/01/20 00:50:42;;;;;;;22.83;6.15;;;3.30;99.90;;;;;;4984699;28;20034;-74
2022/01/20 00:53:07;;;;;;;25.65;5.50;;;3.20;99.90;;;;;;4981924;28;20125;-74
2022/01/20 00:55:33;;;;;;;17.75;5.30;;;3.10;99.90;;;;;;4981341;28;20038;-74
2022/01/20 00:57:59;;;;;;;15.90;4.85;;;3.10;99.90;;;;;;4983005;28;20390;-74
2022/01/20 01:00:24;;;;;;;19.55;4.80;;;3.00;99.90;;;;;;4979942;28;20025;-74
2022/01/20 01:02:50;;;;;;;27.92;6.20;;;2.90;99.90;;;;;;4981505;28;20509;-74
2022/01/20 01:05:16;;;;;;;27.45;6.07;;;2.90;99.90;;;;;;4982769;28;20030;-74
2022/01/20 01:07:47;;;;;;;24.42;5.50;;;2.90;99.90;;;;;;4975600;28;20182;-74
2022/01/20 01:10:26;;;;;;;23.75;6.55;;;2.90;99.90;;;;;;4980110;28;20045;-74
2022/01/20 01:15:24;;;;;;;28.25;6.68;;;2.80;99.90;;;;;;4974899;28;20045;-74
2022/01/20 01:21:08;;;;;;;21.63;5.22;;;2.80;99.90;;;;;;4987951;28;20359;-74
2022/01/20 01:23:21;;;;;;;27.00;5.13;;;2.80;99.90;;;;;;4980319;28;20034;-74
2022/01/20 01:25:47;;;;;;;26.90;5.82;;;2.80;99.90;;;;;;4975959;28;20042;-74
2022/01/20 01:28:12;;;;;;;24.00;5.03;;;2.90;99.90;;;;;;4984575;28;20042;-74
2022/01/20 01:33:10;;;;;;;29.42;5.18;;;2.90;99.90;;;;;;4982229;28;20034;-74
2022/01/20 01:35:40;;;;;;;30.58;5.53;;;2.90;99.90;;;;;;4987079;28;20152;-74
2022/01/20 01:40:33;;;;;;;33.20;6.15;;;2.90;99.90;;;;;;4981645;28;20093;-74
2022/01/20 01:43:10;;;;;;;28.40;5.10;;;2.90;99.90;;;;;;4978021;28;20030;-74
2022/01/20 01:45:40;;;;;;;29.52;4.90;;;2.90;99.90;;;;;;4985367;28;20129;-74
2022/01/20 01:48:07;;;;;;;34.95;5.18;;;3.00;99.90;;;;;;4987242;28;20048;-74
2022/01/20 01:50:33;;;;;;;28.15;4.93;;;2.90;99.90;;;;;;4985903;28;20026;-74
2022/01/20 01:53:03;;;;;;;28.98;5.00;;;2.90;99.90;;;;;;4974884;28;20564;-74
2022/01/20 01:55:29;;;;;;;29.13;4.68;;;2.90;99.90;;;;;;4977450;28;20031;-74
2022/01/20 01:57:55;;;;;;;36.55;5.00;;;2.90;99.90;;;;;;4981219;28;20164;-74
2022/01/20 02:00:21;;;;;;;35.63;4.47;;;2.90;99.90;;;;;;4974855;28;20514;-75
2022/01/20 02:02:47;;;;;;;31.02;4.75;;;2.80;99.90;;;;;;4978658;28;20026;-74
2022/01/20 02:05:15;;;;;;;34.35;4.68;;;2.80;99.90;;;;;;4985226;28;20026;-74
2022/01/20 02:18:52;;;;;;;25.98;3.92;;;2.70;99.90;;;;;;4980075;28;20616;-74
2022/01/20 02:21:18;;;;;;;25.77;4.40;;;2.80;99.90;;;;;;4982204;28;20041;-74
2022/01/20 02:23:44;;;;;;;33.90;5.00;;;2.80;99.90;;;;;;4986147;28;20023;-74
2022/01/20 02:26:10;;;;;;;24.42;4.13;;;2.80;99.90;;;;;;4983167;28;20307;-74
2022/01/20 02:28:36;;;;;;;28.70;4.07;;;2.80;99.90;;;;;;4982683;28;20515;-74
2022/01/20 02:31:03;;;;;;;39.15;3.95;;;2.80;99.90;;;;;;4980865;28;20037;-74
2022/01/20 02:33:30;;;;;;;33.95;3.78;;;2.90;99.90;;;;;;4988273;28;20113;-74
2022/01/20 02:36:00;;;;;;;25.58;3.97;;;2.90;99.90;;;;;;4979534;28;20038;-74
2022/01/20 02:38:42;;;;;;;39.20;4.38;;;2.90;99.90;;;;;;4986108;28;20562;-74
2022/01/20 02:46:38;;;;;;;28.92;3.85;;;2.90;99.90;;;;;;4979454;28;20105;-74
2022/01/20 02:49:04;;;;;;;29.45;3.70;;;2.90;99.90;;;;;;4984297;28;20447;-74
2022/01/20 02:51:30;;;;;;;35.70;4.70;;;2.90;99.90;;;;;;4987254;28;20050;-74
2022/01/20 02:53:56;;;;;;;31.17;4.95;;;3.00;99.90;;;;;;4976774;28;20065;-74
2022/01/20 02:56:22;;;;;;;27.45;3.85;;;3.00;99.90;;;;;;4988518;28;20492;-75
2022/01/20 02:58:48;;;;;;;31.45;3.88;;;3.00;99.90;;;;;;4986306;28;20035;-74
2022/01/20 03:01:14;;;;;;;28.45;3.80;;;3.00;99.90;;;;;;4976391;28;20022;-74
2022/01/20 03:03:40;;;;;;;27.13;3.90;;;2.90;99.90;;;;;;4977302;28;20062;-74
2022/01/20 03:06:05;;;;;;;27.58;3.78;;;2.90;99.90;;;;;;4985902;28;20510;-74
2022/01/20 03:08:31;;;;;;;22.50;3.67;;;2.90;99.90;;;;;;4983902;28;20030;-74
2022/01/20 03:10:57;;;;;;;25.05;4.38;;;2.90;99.90;;;;;;4982918;28;20027;-74
2022/01/20 03:13:22;;;;;;;21.85;3.92;;;2.90;99.90;;;;;;4985614;28;20026;-74
2022/01/20 03:15:48;;;;;;;22.48;4.05;;;2.80;99.90;;;;;;4980313;28;20107;-74
2022/01/20 03:18:14;;;;;;;32.47;3.92;;;2.80;99.90;;;;;;4975009;28;20050;-73
2022/01/20 03:20:40;;;;;;;33.08;4.22;;;2.90;99.90;;;;;;4977995;28;20471;-74
2022/01/20 03:23:05;;;;;;;22.33;3.67;;;2.90;99.90;;;;;;4986559;28;20514;-74
2022/01/20 03:25:31;;;;;;;32.92;3.97;;;2.90;99.90;;;;;;4987011;28;20030;-74
2022/01/20 03:27:58;;;;;;;16.92;2.92;;;2.90;99.90;;;;;;4981208;28;20034;-74
2022/01/20 03:30:25;;;;;;;26.70;4.32;;;2.90;99.90;;;;;;4974479;28;20042;-73
2022/01/20 03:32:50;;;;;;;28.10;3.97;;;2.90;99.90;;;;;;4976560;28;20085;-74
2022/01/20 03:35:16;;;;;;;27.92;4.68;;;2.90;99.90;;;;;;4981815;28;20034;-74
2022/01/20 03:37:42;;;;;;;25.55;4.28;;;2.90;99.90;;;;;;4981318;28;20058;-74
2022/01/20 03:40:09;;;;;;;22.48;3.83;;;2.90;99.90;;;;;;4983507;28;20042;-74
2022/01/20 03:42:35;;;;;;;27.42;4.07;;;2.90;99.90;;;;;;4982868;28;20502;-74
2022/01/20 03:45:02;;;;;;;20.58;3.85;;;2.80;99.90;;;;;;4981903;28;20097;-74
2022/01/20 03:47:27;;;;;;;20.23;3.88;;;2.80;99.90;;;;;;4972647;28;20422;-74
2022/01/20 03:52:27;;;;;;;22.85;3.42;;;2.80;99.90;;;;;;4981537;28;20027;-73
2022/01/20 03:54:53;;;;;;;20.90;4.15;;;2.80;99.90;;;;;;4972653;28;20042;-73
2022/01/20 03:57:19;;;;;;;31.65;4.78;;;2.80;99.90;;;;;;4979361;28;20068;-74
2022/01/20 03:59:45;;;;;;;19.05;3.58;;;2.80;99.90;;;;;;4984248;28;20060;-74
2022/01/20 04:02:10;;;;;;;26.08;3.75;;;2.80;99.90;;;;;;4975381;28;20030;-74
2022/01/20 04:04:36;;;;;;;27.05;3.70;;;2.90;99.90;;;;;;4978626;28;20046;-74
2022/01/20 04:07:03;;;;;;;21.38;4.03;;;2.90;99.90;;;;;;4983361;28;20368;-74
2022/01/20 04:09:29;;;;;;;20.95;4.18;;;2.80;99.90;;;;;;4986422;28;20392;-74
2022/01/20 04:11:54;;;;;;;28.33;3.85;;;2.90;99.90;;;;;;4981748;28;20030;-74
2022/01/20 04:14:23;;;;;;;25.08;4.18;;;2.90;99.90;;;;;;4972532;28;20133;-74
2022/01/20 04:17:04;;;;;;;28.50;4.68;;;2.90;99.90;;;;;;4978735;28;20338;-74
2022/01/20 04:19:32;;;;;;;27.48;4.95;;;2.90;99.90;;;;;;4977886;28;20126;-74
2022/01/20 04:21:59;;;;;;;24.40;4.00;;;2.90;99.90;;;;;;4979905;28;20553;-74
2022/01/20 04:24:24;;;;;;;25.10;4.53;;;2.90;99.90;;;;;;4979916;28;20025;-75
2022/01/20 04:26:50;;;;;;;22.77;4.55;;;2.90;99.90;;;;;;4978303;28;20026;-74
2022/01/20 04:29:16;;;;;;;29.38;4.47;;;2.90;99.90;;;;;;4971872;28;20053;-75
2022/01/20 04:31:44;;;;;;;23.08;3.97;;;2.90;99.90;;;;;;4979579;28;20033;-74
2022/01/20 04:34:10;;;;;;;24.65;4.32;;;2.90;99.90;;;;;;4986003;28;20037;-74
2022/01/20 04:36:39;;;;;;;27.88;4.40;;;2.90;99.90;;;;;;4981358;28;20050;-74
2022/01/20 04:39:09;;;;;;;29.73;4.43;;;2.90;99.90;;;;;;4979891;28;20515;-75
2022/01/20 04:41:35;;;;;;;24.52;3.85;;;2.90;99.90;;;;;;4973000;28;20166;-75
2022/01/20 04:44:02;;;;;;;18.20;3.75;;;3.00;99.90;;;;;;4982974;28;20076;-75
2022/01/20 04:46:44;;;;;;;18.35;3.45;;;3.00;99.90;;;;;;4978729;28;20651;-74
2022/01/20 04:57:23;;;;;;;22.63;3.97;;;3.00;99.90;;;;;;4980543;28;20041;-73
2022/01/20 04:59:51;;;;;;;21.05;3.30;;;3.00;99.90;;;;;;4975794;28;20034;-75
2022/01/20 05:02:17;;;;;;;14.07;3.40;;;3.00;99.90;;;;;;4975889;28;20099;-75
2022/01/20 05:04:43;;;;;;;14.98;3.33;;;3.10;99.90;;;;;;4982555;28;20755;-75
2022/01/20 05:07:10;;;;;;;11.70;3.03;;;3.10;99.90;;;;;;4973630;28;20027;-75
2022/01/20 05:09:37;;;;;;;14.15;3.33;;;3.10;99.90;;;;;;4981005;28;20034;-75
2022/01/20 05:12:07;;;;;;;14.23;3.40;;;3.10;99.90;;;;;;4979288;28;20089;-74
2022/01/20 05:14:33;;;;;;;17.67;3.58;;;3.10;99.90;;;;;;4979596;28;20041;-75
2022/01/20 05:16:59;;;;;;;16.88;3.22;;;3.10;99.90;;;;;;4976685;28;20022;-75
2022/01/20 05:19:27;;;;;;;12.93;3.17;;;3.10;99.90;;;;;;4982093;28;20365;-74
2022/01/20 05:21:53;;;;;;;13.52;3.40;;;3.10;99.90;;;;;;4984151;28;20459;-74
2022/01/20 05:24:22;;;;;;;9.18;3.50;;;3.20;99.90;;;;;;4983671;28;20018;-74
2022/01/20 05:26:50;;;;;;;7.50;2.85;;;3.20;99.90;;;;;;4974493;28;20104;-75
2022/01/20 05:29:16;;;;;;;13.05;3.60;;;3.10;99.90;;;;;;4982092;28;20050;-74
2022/01/20 05:31:42;;;;;;;16.20;3.45;;;3.10;99.90;;;;;;4984096;28;20556;-74
2022/01/20 05:34:07;;;;;;;11.25;3.80;;;3.10;99.90;;;;;;4983205;28;20022;-74
2022/01/20 05:36:33;;;;;;;10.55;3.08;;;3.10;99.90;;;;;;4979350;28;20117;-74
2022/01/20 05:38:59;;;;;;;14.80;3.90;;;3.10;99.90;;;;;;4976574;28;20060;-75
2022/01/20 05:41:24;;;;;;;14.75;3.42;;;3.20;99.90;;;;;;4974866;28;20571;-74
2022/01/20 05:43:50;;;;;;;8.70;2.90;;;3.20;99.90;;;;;;4979347;28;20390;-74
2022/01/20 05:46:18;;;;;;;17.65;3.10;;;3.30;99.90;;;;;;4982300;28;20549;-74
2022/01/20 05:48:47;;;;;;;10.93;3.08;;;3.30;99.90;;;;;;4981650;28;20101;-74
2022/01/20 05:51:14;;;;;;;11.82;3.17;;;3.30;99.90;;;;;;4968926;28;20030;-74
2022/01/20 05:53:39;;;;;;;11.60;2.80;;;3.30;99.90;;;;;;4979035;28;20036;-75
2022/01/20 05:56:05;;;;;;;14.18;3.05;;;3.40;99.90;;;;;;4980326;28;20026;-75
2022/01/20 05:58:36;;;;;;;14.93;3.38;;;3.40;99.90;;;;;;4983658;28;20502;-74
2022/01/20 06:01:08;;;;;;;12.10;2.60;;;3.40;99.90;;;;;;4979739;28;20030;-74
2022/01/20 06:03:36;;;;;;;9.77;2.45;;;3.30;99.90;;;;;;4979332;28;20023;-74
2022/01/20 06:06:11;;;;;;;7.82;2.22;;;3.20;99.90;;;;;;4982195;28;20029;-75
2022/01/20 06:08:38;;;;;;;10.80;2.17;;;3.20;99.90;;;;;;4983387;28;20092;-75
2022/01/20 06:11:05;;;;;;;13.88;2.10;;;3.10;99.90;;;;;;4984014;28;20131;-74
2022/01/20 06:13:31;;;;;;;9.85;2.20;;;3.10;99.90;;;;;;4981863;28;20022;-74
2022/01/20 06:15:57;;;;;;;11.45;2.38;;;3.10;99.90;;;;;;4979218;28;20076;-74
2022/01/20 06:18:23;;;;;;;7.05;1.90;;;3.10;99.90;;;;;;4979093;28;20030;-74
2022/01/20 06:20:49;;;;;;;14.95;2.13;;;3.20;99.90;;;;;;4983554;28;20056;-74
2022/01/20 06:23:16;;;;;;;11.20;1.65;;;3.20;99.90;;;;;;4982334;28;20054;-74
2022/01/20 06:25:41;;;;;;;13.10;1.98;;;3.20;99.90;;;;;;4982995;28;20034;-75
2022/01/20 06:28:08;;;;;;;8.20;1.55;;;3.20;99.90;;;;;;4985077;28;20026;-74
2022/01/20 06:30:34;;;;;;;15.07;2.33;;;3.20;99.90;;;;;;4980956;28;20102;-75
2022/01/20 06:33:01;;;;;;;3.50;0.70;;;3.20;99.90;;;;;;4988485;28;20036;-74
2022/01/20 06:35:27;;;;;;;4.82;0.80;;;3.10;99.90;;;;;;4978442;28;20093;-75
2022/01/20 06:37:53;;;;;;;4.20;0.85;;;;;;;;;;4978068;28;20031;-74
2022/01/20 06:40:18;;;;;;;6.53;1.23;;;2.80;99.90;;;;;;4986446;28;20458;-75
2022/01/20 06:42:45;;;;;;;8.63;1.15;;;2.60;99.90;;;;;;4980699;28;20033;-74
2022/01/20 06:45:14;;;;;;;8.60;1.35;;;2.40;99.90;;;;;;4979649;28;20534;-75
2022/01/20 06:47:40;;;;;;;16.13;2.95;;;2.20;99.90;;;;;;4982026;28;20045;-74
2022/01/20 06:50:08;;;;;;;12.95;1.60;;;2.10;99.90;;;;;;4985141;28;20034;-73
2022/01/20 06:52:34;;;;;;;16.95;2.53;;;2.00;99.90;;;;;;4983780;28;20030;-74
2022/01/20 06:55:04;;;;;;;15.90;1.90;;;2.00;99.90;;;;;;4983236;28;20038;-73
2022/01/20 06:57:30;;;;;;;18.48;2.15;;;2.00;99.90;;;;;;4980496;28;20232;-73
2022/01/20 06:59:56;;;;;;;19.45;2.13;;;2.10;99.90;;;;;;4978580;28;20729;-74
2022/01/20 07:02:23;;;;;;;17.00;2.42;;;2.00;99.90;;;;;;4979928;28;20791;-73
2022/01/20 07:04:48;;;;;;;19.30;1.92;;;2.00;99.90;;;;;;4978523;28;20026;-73
2022/01/20 07:07:14;;;;;;;24.60;2.75;;;2.00;99.90;;;;;;4629746;28;9999750;-74
2022/01/20 07:09:40;;;;;;;21.67;2.40;;;2.00;99.90;;;;;;4973715;28;20437;-74
2022/01/20 07:12:06;;;;;;;22.75;2.60;;;2.10;99.90;;;;;;4978913;28;20507;-73
2022/01/20 07:14:32;;;;;;;18.67;2.97;;;2.10;99.90;;;;;;4974572;28;20030;-73
2022/01/20 07:16:58;;;;;;;12.07;2.60;;;2.10;99.90;;;;;;4976237;28;20097;-73
2022/01/20 07:19:24;;;;;;;22.15;2.40;;;2.10;99.90;;;;;;4970242;28;20030;-74
2022/01/20 07:21:50;;;;;;;21.88;2.47;;;2.10;99.90;;;;;;4985974;28;20550;-73
2022/01/20 07:24:15;;;;;;;21.98;2.55;;;2.00;99.90;;;;;;4978163;28;20537;-73
2022/01/20 07:26:41;;;;;;;12.95;2.10;;;2.10;99.90;;;;;;4972743;28;20038;-73
2022/01/20 07:29:07;;;;;;;24.05;3.13;;;2.10;99.90;;;;;;4980855;28;20046;-73
2022/01/20 07:31:34;;;;;;;24.90;2.95;;;2.20;99.90;;;;;;4982380;28;20035;-73
2022/01/20 07:34:00;;;;;;;18.90;2.55;;;2.20;99.90;;;;;;4979465;28;20355;-73
2022/01/20 07:36:25;;;;;;;15.98;2.35;;;2.20;99.90;;;;;;4972778;28;20580;-73
2022/01/20 07:38:51;;;;;;;14.48;2.10;;;2.10;99.90;;;;;;4978892;28;20554;-73
2022/01/20 07:41:16;;;;;;;17.42;2.30;;;2.10;99.90;;;;;;4981643;28;20508;-73
2022/01/20 07:43:42;;;;;;;20.70;2.42;;;2.20;99.90;;;;;;4984778;28;20034;-73
2022/01/20 07:46:09;;;;;;;21.23;2.70;;;2.10;99.90;;;;;;4980347;28;20596;-73
2022/01/20 07:48:35;;;;;;;16.23;2.67;;;2.20;99.90;;;;;;4978118;28;20031;-73
2022/01/20 07:51:02;;;;;;;14.05;3.08;;;2.20;99.90;;;;;;4976915;28;20416;-73
2022/01/20 07:53:27;;;;;;;15.38;2.58;;;2.30;99.90;;;;;;4972789;28;20035;-73
2022/01/20 07:55:53;;;;;;;17.77;2.20;;;2.30;99.90;;;;;;4978109;28;20044;-73
2022/01/20 07:58:19;;;;;;;14.70;2.22;;;2.30;99.90;;;;;;4977938;28;20058;-72
2022/01/20 08:00:45;;;;;;;18.65;2.55;;;2.30;99.90;;;;;;4976462;28;20110;-73
2022/01/20 08:03:11;;;;;;;13.38;1.92;;;2.40;99.90;;;;;;4979102;28;20748;-73
2022/01/20 08:05:36;;;;;;;16.75;2.42;;;2.30;99.90;;;;;;4980507;28;20626;-72
2022/01/20 08:08:02;;;;;;;16.48;2.10;;;2.40;99.90;;;;;;4975325;28;20121;-72
2022/01/20 08:10:28;;;;;;;16.52;2.83;;;2.40;99.90;;;;;;4980111;28;20084;-73
2022/01/20 08:12:54;;;;;;;19.40;2.78;;;2.40;99.90;;;;;;4976342;28;20067;-73
2022/01/20 08:15:20;;;;;;;14.32;2.70;;;2.30;99.90;;;;;;4981405;28;20034;-72
2022/01/20 08:17:47;;;;;;;20.08;2.92;;;2.30;99.90;;;;;;4977083;28;20039;-72
2022/01/20 08:20:13;;;;;;;18.95;2.60;;;2.40;99.90;;;;;;4986593;28;20073;-72
2022/01/20 08:22:39;;;;;;;12.15;2.83;;;2.40;99.90;;;;;;4976188;28;20034;-72
2022/01/20 08:25:08;;;;;;;24.52;2.92;;;2.40;99.90;;;;;;4975119;28;20394;-72
2022/01/20 08:27:34;;;;;;;20.15;3.53;;;2.40;99.90;;;;;;4970719;28;20209;-72
2022/01/20 08:29:59;;;;;;;18.35;2.97;;;2.50;99.90;;;;;;4975446;28;20050;-72
2022/01/20 08:32:25;;;;;;;12.15;2.20;;;2.50;99.90;;;;;;4981332;28;20093;-72
2022/01/20 08:34:51;;;;;;;17.52;2.10;;;2.40;99.90;;;;;;4974389;28;20050;-72
2022/01/20 08:37:16;;;;;;;20.30;2.78;;;2.40;99.90;;;;;;4982657;28;20033;-72
2022/01/20 08:39:44;;;;;;;16.50;2.53;;;2.50;99.90;;;;;;4974833;28;20030;-73
2022/01/20 08:42:11;;;;;;;22.52;2.85;;;2.50;99.90;;;;;;4976846;28;20037;-73
2022/01/20 08:44:37;;;;;;;21.80;3.55;;;2.60;99.90;;;;;;4977959;28;20113;-72
2022/01/20 08:47:09;;;;;;;18.73;3.10;;;2.70;99.90;;;;;;4981803;28;20410;-73
2022/01/20 08:49:36;;;;;;;18.75;3.13;;;2.70;99.90;;;;;;4977498;28;20038;-73
2022/01/20 08:52:02;;;;;;;24.30;2.90;;;2.70;99.90;;;;;;4977784;28;20030;-72
2022/01/20 08:54:28;;;;;;;21.83;3.00;;;2.70;99.90;;;;;;4981985;28;20034;-73
2022/01/20 08:56:54;;;;;;;14.57;2.50;;;2.70;99.90;;;;;;4975291;28;20030;-73
2022/01/20 08:59:19;;;;;;;18.40;2.92;;;2.70;99.90;;;;;;4977957;28;20030;-73
2022/01/20 09:01:45;;;;;;;18.15;2.88;;;2.70;99.90;;;;;;4982124;28;20066;-73
2022/01/20 09:04:11;;;;;;;16.73;2.60;;;2.70;99.90;;;;;;4974154;28;20034;-73
2022/01/20 09:06:36;;;;;;;12.48;2.45;;;2.60;99.90;;;;;;4982667;28;20430;-75
2022/01/20 09:09:03;;;;;;;18.58;2.58;;;2.70;99.90;;;;;;4972010;28;20522;-75
2022/01/20 09:11:36;;;;;;;18.02;3.42;;;2.70;99.90;;;;;;4968422;28;20212;-75
2022/01/20 09:16:46;;;;;;;13.00;2.53;;;2.60;99.90;;;;;;4982759;28;20505;-75
2022/01/20 09:19:12;;;;;;;16.58;2.72;;;2.60;99.90;;;;;;4982729;28;20142;-77
2022/01/20 09:21:39;;;;;;;10.60;2.95;;;2.60;99.90;;;;;;4980332;28;20038;-75
2022/01/20 09:24:06;;;;;;;18.95;2.65;;;2.60;99.90;;;;;;4981706;28;20041;-75
2022/01/20 09:26:32;;;;;;;16.90;3.17;;;2.60;99.90;;;;;;4984127;28;20125;-75
2022/01/20 09:28:58;;;;;;;13.75;2.03;;;2.70;99.90;;;;;;4971001;28;20051;-75
2022/01/20 09:31:26;;;;;;;16.65;2.95;;;2.70;99.90;;;;;;4979634;28;20074;-74
2022/01/20 09:33:53;;;;;;;18.25;2.67;;;2.70;99.90;;;;;;4982907;28;20042;-74
2022/01/20 09:36:20;;;;;;;13.82;2.63;;;2.70;99.90;;;;;;4985306;28;20026;-74
2022/01/20 09:38:46;;;;;;;13.52;2.45;;;2.90;99.90;;;;;;4984848;28;20405;-74
2022/01/20 09:41:12;;;;;;;18.40;3.88;;;3.00;99.90;;;;;;4983028;28;20031;-74
2022/01/20 09:43:38;;;;;;;24.17;2.40;;;3.10;99.90;;;;;;4987132;28;20053;-74
2022/01/20 09:46:04;;;;;;;13.48;2.85;;;;;;;;;;4986880;28;20038;-75
2022/01/20 09:48:32;;;;;;;20.80;3.40;;;3.10;99.90;;;;;;4982270;28;20323;-74
2022/01/20 09:51:00;;;;;;;25.50;3.60;;;3.10;99.90;;;;;;4985102;28;20041;-74
2022/01/20 09:53:27;;;;;;;22.15;3.40;;;2.90;99.90;;;;;;4981664;28;20038;-74
2022/01/20 09:55:53;;;;;;;15.25;3.30;;;2.70;99.90;;;;;;4978169;28;20066;-74
2022/01/20 09:58:19;;;;;;;19.52;3.35;;;2.60;99.90;;;;;;4983689;28;20027;-74
2022/01/20 10:00:46;;;;;;;17.02;2.85;;;2.50;99.90;;;;;;4989809;28;20430;-74
2022/01/20 10:03:15;;;;;;;18.67;3.45;;;2.60;99.90;;;;;;4975922;28;20479;-74
2022/01/20 10:05:50;;;;;;;16.85;2.35;;;2.50;99.90;;;;;;4977564;28;20278;-74
2022/01/20 10:08:22;;;;;;;18.30;3.10;;;2.60;99.90;;;;;;4983202;28;20501;-74
2022/01/20 10:10:52;;;;;;;10.98;2.47;;;2.60;99.90;;;;;;4981349;28;20105;-74
2022/01/20 10:13:21;;;;;;;17.30;3.28;;;2.60;99.90;;;;;;4988754;28;20026;-74
2022/01/20 10:16:17;;;;;;;14.05;2.67;;;2.50;99.90;;;;;;4985631;28;20026;-75
2022/01/20 10:18:52;;;;;;;15.77;2.60;;;2.50;99.90;;;;;;4963027;28;20038;-78
2022/01/20 10:21:26;;;;;;;17.38;3.30;;;2.50;99.90;;;;;;4988127;28;20558;-75
2022/01/20 10:23:51;;;;;;;14.57;2.40;;;2.60;99.90;;;;;;4973318;28;20047;-76
2022/01/20 10:26:23;;;;;;;14.57;2.80;;;2.70;99.90;;;;;;4972653;28;20363;-78
2022/01/20 10:29:00;;;;;;;14.60;2.78;;;2.90;99.90;;;;;;4988613;28;20550;-76
2022/01/20 10:31:45;;;;;;;12.18;2.47;;;3.00;99.90;;;;;;4978296;28;20026;-79
2022/01/20 10:34:28;;;;;;;18.38;2.72;;;3.00;99.90;;;;;;4982404;28;20434;-77
2022/01/20 10:36:55;;;;;;;16.27;2.53;;;3.00;99.90;;;;;;4973416;28;20478;-74
2022/01/20 10:39:28;;;;;;;16.08;2.55;;;3.10;99.90;;;;;;4982630;28;20056;-75
2022/01/20 10:42:20;;;;;;;13.10;2.65;;;3.10;99.90;;;;;;4983555;28;20031;-77
2022/01/20 10:44:51;;;;;;;14.00;2.10;;;3.10;99.90;;;;;;4986064;28;20035;-78
2022/01/20 10:47:19;;;;;;;14.95;2.08;;;3.10;99.90;;;;;;4984571;28;20030;-79
2022/01/20 10:49:46;;;;;;;11.05;2.30;;;3.20;99.90;;;;;;4986335;28;20034;-77
2022/01/20 10:52:16;;;;;;;13.55;2.60;;;3.30;99.90;;;;;;4988778;28;20487;-77
2022/01/20 10:54:53;;;;;;;10.80;2.20;;;3.30;99.90;;;;;;4984970;28;20037;-76
2022/01/20 10:57:27;;;;;;;11.98;2.38;;;3.30;99.90;;;;;;4979712;28;20105;-77
2022/01/20 10:59:56;;;;;;;10.95;2.10;;;3.30;99.90;;;;;;4980692;28;20101;-76
2022/01/20 11:02:27;;;;;;;10.90;1.92;;;3.30;99.90;;;;;;4986591;28;20029;-76
2022/01/20 11:04:53;;;;;;;15.45;2.45;;;3.30;99.90;;;;;;4980968;28;20434;-76
2022/01/20 11:07:19;;;;;;;20.33;2.30;;;3.30;99.90;;;;;;4986224;28;20411;-75
2022/01/20 11:09:47;;;;;;;13.82;2.53;;;3.30;99.90;;;;;;4976481;28;20105;-76
2022/01/20 11:12:20;;;;;;;15.18;2.35;;;3.40;99.90;;;;;;4988221;28;20549;-76
2022/01/20 11:14:47;;;;;;;17.92;2.88;;;3.30;99.90;;;;;;4988160;28;20035;-77
2022/01/20 11:17:29;;;;;;;14.02;2.28;;;3.40;99.90;;;;;;4986731;28;20066;-78
2022/01/20 11:20:21;;;;;;;16.13;2.60;;;3.40;99.90;;;;;;4986376;28;20025;-77
2022/01/20 11:23:01;;;;;;;15.05;3.17;;;3.40;99.90;;;;;;4986549;28;20030;-77
2022/01/20 11:25:30;;;;;;;14.00;2.50;;;3.30;99.90;;;;;;4980154;28;20027;-76
2022/01/20 11:28:10;;;;;;;17.30;2.83;;;3.10;99.90;;;;;;4980614;28;20029;-74
2022/01/20 11:30:40;;;;;;;19.63;2.53;;;3.10;99.90;;;;;;4973017;28;20438;-74
2022/01/20 11:33:16;;;;;;;17.38;2.38;;;3.00;99.90;;;;;;4972009;28;20035;-74
2022/01/20 11:35:41;;;;;;;13.93;2.20;;;3.10;99.90;;;;;;4987463;28;20034;-77
2022/01/20 11:38:08;;;;;;;12.32;2.55;;;3.20;99.90;;;;;;4984806;28;20088;-76
2022/01/20 11:40:36;;;;;;;10.88;1.85;;;3.30;99.90;;;;;;4981593;28;20356;-75
2022/01/20 11:43:05;;;;;;;13.55;2.05;;;3.50;99.90;;;;;;4982454;28;20034;-75
2022/01/20 11:45:33;;;;;;;18.63;2.45;;;3.70;99.90;;;;;;4986389;28;20038;-77
2022/01/20 11:48:14;;;;;;;15.68;2.15;;;3.70;99.90;;;;;;4983953;28;20073;-74
2022/01/20 11:50:43;;;;;;;9.68;1.70;;;3.70;99.90;;;;;;4984978;28;20026;-76
2022/01/20 11:53:20;;;;;;;15.38;1.95;;;3.70;99.90;;;;;;4978246;28;20026;-75
2022/01/20 11:55:52;;;;;;;11.60;2.15;;;3.70;99.90;;;;;;4981774;28;20427;-77
2022/01/20 11:58:21;;;;;;;13.53;2.17;;;3.80;99.90;;;;;;4984023;28;20097;-77
2022/01/20 12:01:08;;;;;;;15.80;2.13;;;3.90;99.90;;;;;;4985738;28;20269;-77
2022/01/20 12:03:35;;;;;;;14.43;2.78;;;4.10;99.90;;;;;;4976616;28;20035;-78
2022/01/20 12:06:08;;;;;;;7.75;1.73;;;4.30;99.90;;;;;;4981795;28;20041;-79
2022/01/20 12:08:35;;;;;;;9.73;2.25;;;4.40;99.90;;;;;;4985710;28;20113;-79
2022/01/20 12:11:07;;;;;;;13.00;2.15;;;4.50;99.90;;;;;;4981967;28;20130;-76
2022/01/20 12:13:45;;;;;;;13.23;1.45;;;4.60;99.90;;;;;;4984605;28;20030;-79
2022/01/20 12:16:21;;;;;;;8.30;1.65;;;4.50;99.90;;;;;;4972382;28;20109;-77
2022/01/20 12:18:57;;;;;;;10.25;2.03;;;4.30;99.90;;;;;;4983588;28;20046;-77
2022/01/20 12:21:24;;;;;;;12.98;2.55;;;4.30;99.90;;;;;;4983903;28;20019;-75
2022/01/20 12:23:53;;;;;;;15.13;2.35;;;4.20;99.90;;;;;;4985770;28;20285;-75
2022/01/20 12:26:19;;;;;;;9.90;2.00;;;4.10;99.90;;;;;;4981496;28;20034;-75
2022/01/20 12:28:45;;;;;;;12.45;2.20;;;4.00;99.90;;;;;;4979655;28;20097;-76
2022/01/20 12:31:14;;;;;;;10.40;1.50;;;3.90;99.90;;;;;;4980917;28;20190;-78
2022/01/20 12:33:46;;;;;;;18.48;2.08;;;;;;;;;;4977123;28;20042;-78
2022/01/20 12:36:13;;;;;;;10.63;1.55;;;;;;;;;;4977109;28;20392;-78
2022/01/20 12:38:39;;;;;;;8.30;1.50;;;;;;;;;;4973946;28;20023;-78
2022/01/20 12:41:07;;;;;;;18.52;2.00;;;;;;;;;;4983342;28;20482;-77
2022/01/20 12:44:12;;;;;;;15.05;1.90;;;;;;;;;;4976886;28;20027;-78
2022/01/20 12:46:39;;;;;;;11.27;1.92;;;;;;;;;;4982237;28;20034;-78
2022/01/20 12:49:14;;;;;;;9.88;2.17;;;;;;;;;;4982373;28;20018;-78
2022/01/20 12:51:42;;;;;;;10.60;2.30;;;;;;;;;;4980365;28;20474;-78
2022/01/20 12:54:08;;;;;;;15.63;2.40;;;;;;;;;;4977772;28;20159;-78
2022/01/20 12:56:35;;;;;;;9.15;1.77;;;;;;;;;;4982535;28;20037;-78
2022/01/20 12:59:02;;;;;;;13.75;2.00;;;;;;;;;;4983166;28;20081;-78
2022/01/20 13:01:42;;;;;;;11.25;2.00;;;3.60;99.90;;;;;;4983100;28;20101;-78
2022/01/20 13:04:09;;;;;;;20.85;2.60;;;3.60;99.90;;;;;;4982694;28;20029;-78
2022/01/20 13:06:39;;;;;;;11.93;2.10;;;3.70;99.90;;;;;;4982594;28;20429;-78
2022/01/20 13:09:09;;;;;;;11.82;2.33;;;3.70;99.90;;;;;;4981988;28;20038;-78
2022/01/20 13:11:52;;;;;;;13.13;2.10;;;3.60;99.90;;;;;;4978758;28;20042;-78
2022/01/20 13:14:19;;;;;;;13.57;1.85;;;3.50;99.90;;;;;;4975951;28;20334;-78
2022/01/20 13:16:56;;;;;;;14.18;1.80;;;;;;;;;;4978515;28;20406;-78
2022/01/20 13:19:36;;;;;;;13.13;2.47;;;3.40;99.90;;;;;;4988637;28;20038;-78
2022/01/20 13:22:05;;;;;;;13.65;2.30;;;3.40;99.90;;;;;;4988136;28;20050;-78
2022/01/20 13:24:34;;;;;;;14.68;2.03;;;3.30;99.90;;;;;;4983279;28;20487;-78
2022/01/20 13:27:02;;;;;;;15.20;2.22;;;3.20;99.90;;;;;;4979332;28;20039;-78
2022/01/20 13:29:46;;;;;;;15.13;1.90;;;3.20;99.90;;;;;;4984119;28;20085;-78
2022/01/20 13:32:12;;;;;;;11.45;1.83;;;3.20;99.90;;;;;;4984464;28;20035;-78
2022/01/20 13:34:39;;;;;;;10.20;1.90;;;3.10;99.90;;;;;;4983079;28;20061;-78
2022/01/20 13:37:14;;;;;;;11.60;2.00;;;3.10;99.90;;;;;;4988236;28;20433;-78
2022/01/20 13:39:41;;;;;;;11.45;2.13;;;3.00;99.90;;;;;;4985468;28;20061;-78
2022/01/20 13:42:12;;;;;;;19.48;2.88;;;3.00;99.90;;;;;;4977130;28;20034;-78
2022/01/20 13:47:22;;;;;;;11.70;2.05;;;2.90;99.90;;;;;;4983911;28;20069;-78
2022/01/20 13:49:53;;;;;;;13.43;2.20;;;2.80;99.90;;;;;;4990337;28;20050;-78
2022/01/20 13:52:20;;;;;;;9.93;2.20;;;2.90;99.90;;;;;;4985849;28;20290;-78
2022/01/20 13:54:46;;;;;;;11.38;2.63;;;3.00;99.90;;;;;;4986586;28;20043;-78
2022/01/20 13:57:11;;;;;;;12.38;2.42;;;3.20;99.90;;;;;;4978918;28;20109;-78
2022/01/20 13:59:55;;;;;;;17.30;2.83;;;3.20;99.90;;;;;;4991637;28;20097;-78
2022/01/20 14:02:22;;;;;;;12.77;2.72;;;3.30;99.90;;;;;;4977260;28;20494;-78
2022/01/20 14:04:49;;;;;;;14.73;2.70;;;3.20;99.90;;;;;;4984898;28;20044;-78